Time;durP1;ratioP1;P1;durP2;ratioP2;P2;SDS_P1;SDS_P2;PMS_P1;PMS_P2;Temp;Humidity;BMP_temperature;BMP_pressure;BME280_temperature;BME280_humidity;BME280_pressure;Samples;Min_cycle;Max_cycle;Signal;HPM_P1;HPM_P2
2022/11/03 00:01:39;;;;;;;17.38;4.32;;;;;;;;;;5072796;28;20054;-72
2022/11/03 00:04:06;;;;;;;17.42;3.78;;;;;;;;;;5072992;28;20024;-72
2022/11/03 00:06:32;;;;;;;26.15;4.00;;;;;;;;;;5054294;28;20020;-72
2022/11/03 00:08:59;;;;;;;26.38;4.05;;;;;;;;;;5072816;28;20029;-72
2022/11/03 00:11:25;;;;;;;22.13;3.85;;;;;;;;;;5073828;28;20029;-72
2022/11/03 00:13:51;;;;;;;19.95;4.43;;;;;;;;;;5076272;28;20078;-72
2022/11/03 00:16:17;;;;;;;26.90;4.90;;;;;;;;;;5084133;28;20029;-72
2022/11/03 00:18:43;;;;;;;21.63;3.88;;;;;;;;;;5093440;28;20028;-72
2022/11/03 00:21:10;;;;;;;26.52;4.22;;;;;;;;;;5094294;28;20031;-73
2022/11/03 00:23:38;;;;;;;25.13;4.55;;;;;;;;;;5097471;28;20012;-75
2022/11/03 00:26:04;;;;;;;23.73;3.92;;;;;;;;;;5093409;28;20551;-74
2022/11/03 00:28:31;;;;;;;22.73;3.92;;;;;;;;;;5082119;28;20032;-73
2022/11/03 00:30:57;;;;;;;19.13;3.53;;;;;;;;;;5090527;28;20107;-73
2022/11/03 00:33:25;;;;;;;21.38;3.80;;;;;;;;;;5059722;28;20489;-72
2022/11/03 00:35:55;;;;;;;17.23;3.63;;;;;;;;;;5076243;28;20051;-73
2022/11/03 00:38:21;;;;;;;19.45;3.85;;;;;;;;;;5075920;28;20535;-71
2022/11/03 00:40:54;;;;;;;20.70;4.22;;;;;;;;;;5057822;28;20021;-72
2022/11/03 00:43:21;;;;;;;13.85;3.38;;;;;;;;;;5075749;28;20454;-73
2022/11/03 00:45:47;;;;;;;16.02;3.53;;;;;;;;;;5075662;28;20044;-72
2022/11/03 00:48:29;;;;;;;19.35;3.97;;;;;;;;;;5058055;28;20075;-73
2022/11/03 00:51:06;;;;;;;20.83;3.33;;;;;;;;;;5079076;28;20103;-73
2022/11/03 00:53:33;;;;;;;23.58;4.13;;;;;;;;;;5078936;28;20021;-71
2022/11/03 00:55:59;;;;;;;30.45;5.07;;;;;;;;;;5075609;28;20021;-73
2022/11/03 00:58:25;;;;;;;23.52;3.90;;;;;;;;;;5076062;28;20032;-73
2022/11/03 01:00:58;;;;;;;26.35;4.43;;;;;;;;;;5076001;28;20165;-73
2022/11/03 01:03:24;;;;;;;17.95;3.45;;;;;;;;;;5077292;28;20126;-72
2022/11/03 01:08:35;;;;;;;26.15;4.10;;;;;;;;;;5080214;28;20043;-72
2022/11/03 01:14:00;;;;;;;22.23;3.85;;;;;;;;;;5080968;28;20031;-73
2022/11/03 01:16:26;;;;;;;25.50;4.75;;;;;;;;;;5061406;28;20109;-73
2022/11/03 01:18:52;;;;;;;22.05;4.03;;;;;;;;;;5079827;28;20418;-72
2022/11/03 01:21:18;;;;;;;20.08;3.70;;;;;;;;;;5104899;22;20019;-77
2022/11/03 01:23:44;;;;;;;19.40;3.50;;;;;;;;;;5095500;28;20024;-76
2022/11/03 01:26:11;;;;;;;23.98;3.72;;;;;;;;;;5094886;28;20021;-76
2022/11/03 01:28:38;;;;;;;23.88;4.57;;;;;;;;;;5097620;28;20012;-76
2022/11/03 01:31:08;;;;;;;12.23;3.40;;;;;;;;;;5097287;28;20012;-77
2022/11/03 01:33:34;;;;;;;20.23;3.55;;;;;;;;;;5089620;28;20061;-77
2022/11/03 01:36:00;;;;;;;27.33;3.85;;;;;;;;;;5087876;28;20076;-77
2022/11/03 01:38:26;;;;;;;27.08;3.97;;;;;;;;;;5084128;28;20032;-77
2022/11/03 01:40:52;;;;;;;24.80;4.43;;;;;;;;;;5081918;28;20035;-77
2022/11/03 01:43:22;;;;;;;17.02;3.65;;;;;;;;;;5080687;28;20058;-77
2022/11/03 01:45:50;;;;;;;25.85;4.25;;;;;;;;;;5077103;28;20024;-78
2022/11/03 01:48:17;;;;;;;22.73;3.72;;;;;;;;;;5082805;28;20033;-77
2022/11/03 01:50:44;;;;;;;19.35;4.30;;;;;;;;;;5082445;28;20029;-77
2022/11/03 01:53:11;;;;;;;19.88;4.07;;;;;;;;;;5079734;28;20020;-77
2022/11/03 01:55:40;;;;;;;20.27;3.50;;;;;;;;;;5083718;28;20021;-78
2022/11/03 01:58:21;;;;;;;20.60;4.28;;;;;;;;;;5083783;28;20059;-78
2022/11/03 02:00:49;;;;;;;17.77;3.30;;;;;;;;;;5084692;28;20374;-76
2022/11/03 02:03:15;;;;;;;13.85;3.30;;;;;;;;;;5080049;28;20032;-77
2022/11/03 02:05:42;;;;;;;19.02;3.60;;;;;;;;;;5083619;28;20032;-77
2022/11/03 02:08:11;;;;;;;18.17;3.83;;;;;;;;;;5085041;28;20025;-77
2022/11/03 02:10:40;;;;;;;20.70;3.33;;;;;;;;;;5089886;28;20024;-78
2022/11/03 02:13:14;;;;;;;16.58;4.00;;;;;;;;;;5084139;28;20089;-79
2022/11/03 02:15:40;;;;;;;21.77;3.20;;;;;;;;;;5083680;28;20387;-77
2022/11/03 02:18:07;;;;;;;20.38;2.90;;;;;;;;;;5086196;28;20025;-79
2022/11/03 02:20:33;;;;;;;22.00;4.18;;;;;;;;;;5080759;28;20033;-76
2022/11/03 02:23:02;;;;;;;20.60;3.20;;;;;;;;;;5077882;28;20100;-77
2022/11/03 02:25:42;;;;;;;17.88;3.47;;;;;;;;;;5081515;28;20054;-78
2022/11/03 02:28:09;;;;;;;24.65;3.67;;;;;;;;;;5083016;28;20081;-77
2022/11/03 02:30:41;;;;;;;18.25;4.03;;;;;;;;;;5078038;28;20495;-79
2022/11/03 02:33:24;;;;;;;23.02;4.28;;;;;;;;;;5078479;28;20031;-78
2022/11/03 02:35:56;;;;;;;21.10;3.92;;;;;;;;;;5076699;28;20373;-77
2022/11/03 02:38:24;;;;;;;19.45;3.03;;;;;;;;;;5075658;28;20028;-77
2022/11/03 02:40:52;;;;;;;17.15;3.13;;;;;;;;;;5075285;28;20506;-77
2022/11/03 02:43:19;;;;;;;18.17;3.40;;;;;;;;;;5077906;28;20028;-76
2022/11/03 02:45:47;;;;;;;16.23;3.20;;;;;;;;;;5081300;28;20052;-77
2022/11/03 02:48:14;;;;;;;18.30;2.97;;;;;;;;;;5091495;28;20279;-77
2022/11/03 02:50:41;;;;;;;16.92;3.63;;;;;;;;;;5089882;28;20051;-76
2022/11/03 02:53:07;;;;;;;25.55;4.05;;;;;;;;;;5085860;28;20027;-77
2022/11/03 02:55:35;;;;;;;22.15;3.33;;;;;;;;;;5076683;28;20016;-77
2022/11/03 02:58:20;;;;;;;17.80;3.20;;;;;;;;;;5077032;28;20028;-78
2022/11/03 03:00:54;;;;;;;20.02;3.35;;;;;;;;;;5076477;28;20052;-77
2022/11/03 03:03:23;;;;;;;22.75;3.05;;;;;;;;;;5076632;28;20370;-77
2022/11/03 03:05:50;;;;;;;18.92;3.53;;;;;;;;;;5075002;28;20090;-77
2022/11/03 03:08:16;;;;;;;21.42;3.13;;;;;;;;;;5075442;28;20028;-78
2022/11/03 03:10:44;;;;;;;17.80;3.53;;;;;;;;;;5075839;28;20064;-77
2022/11/03 03:13:13;;;;;;;21.23;3.40;;;;;;;;;;5079036;28;20039;-78
2022/11/03 03:15:47;;;;;;;19.25;4.00;;;;;;;;;;5087558;28;20393;-76
2022/11/03 03:18:20;;;;;;;19.70;3.33;;;;;;;;;;5094396;28;20021;-76
2022/11/03 03:20:52;;;;;;;17.02;3.22;;;;;;;;;;5089227;28;20028;-75
2022/11/03 03:23:20;;;;;;;16.05;3.28;;;;;;;;;;5082702;28;20028;-76
2022/11/03 03:26:01;;;;;;;17.05;3.60;;;;;;;;;;5087330;28;20024;-77
2022/11/03 03:28:35;;;;;;;16.33;2.95;;;;;;;;;;5091988;28;20033;-78
2022/11/03 03:31:05;;;;;;;23.60;3.90;;;;;;;;;;5091775;28;20025;-77
2022/11/03 03:33:32;;;;;;;23.38;3.50;;;;;;;;;;5092639;28;20025;-77
2022/11/03 03:35:59;;;;;;;20.52;3.28;;;;;;;;;;5094466;28;20021;-76
2022/11/03 03:38:27;;;;;;;22.10;3.17;;;;;;;;;;5088993;28;20027;-76
2022/11/03 03:40:54;;;;;;;14.45;2.72;;;;;;;;;;5084722;28;20032;-77
2022/11/03 03:43:22;;;;;;;17.67;3.17;;;;;;;;;;5076768;28;20099;-77
2022/11/03 03:45:50;;;;;;;15.70;3.05;;;;;;;;;;5078444;28;20024;-76
2022/11/03 03:48:16;;;;;;;23.50;3.33;;;;;;;;;;5077497;28;20393;-79
2022/11/03 03:50:42;;;;;;;26.85;3.45;;;;;;;;;;5080367;28;20108;-77
2022/11/03 03:53:09;;;;;;;21.70;3.38;;;;;;;;;;5079133;28;20385;-77
2022/11/03 03:55:36;;;;;;;26.48;3.88;;;;;;;;;;5081775;28;20059;-76
2022/11/03 03:58:03;;;;;;;19.83;3.30;;;;;;;;;;5082327;28;20058;-76
2022/11/03 04:00:30;;;;;;;22.70;4.75;;;;;;;;;;5081794;28;20393;-76
2022/11/03 04:02:57;;;;;;;24.98;3.38;;;;;;;;;;5082638;28;20047;-78
2022/11/03 04:05:23;;;;;;;23.48;3.67;;;;;;;;;;5084683;28;20028;-77
2022/11/03 04:07:50;;;;;;;28.38;3.78;;;;;;;;;;5089125;28;20034;-78
2022/11/03 04:10:16;;;;;;;18.55;2.75;;;;;;;;;;5083641;28;20028;-78
2022/11/03 04:23:41;;;;;;;23.52;3.50;;;;;;;;;;5099684;28;20043;-76
2022/11/03 04:26:15;;;;;;;19.45;3.13;;;;;;;;;;5097170;28;20020;-77
2022/11/03 04:28:41;;;;;;;20.17;3.13;;;;;;;;;;5098551;28;20029;-76
2022/11/03 04:31:14;;;;;;;18.25;3.05;;;;;;;;;;5099538;28;20017;-76
2022/11/03 04:33:40;;;;;;;15.93;2.88;;;;;;;;;;5099328;28;20020;-76
2022/11/03 04:36:20;;;;;;;18.60;3.03;;;;;;;;;;5098385;28;20021;-75
2022/11/03 04:38:47;;;;;;;19.88;3.47;;;;;;;;;;5100004;28;20024;-76
2022/11/03 04:41:17;;;;;;;18.73;3.40;;;;;;;;;;5100334;28;20009;-76
2022/11/03 04:43:44;;;;;;;22.65;3.53;;;;;;;;;;5099656;28;20080;-77
2022/11/03 04:46:11;;;;;;;21.13;3.50;;;;;;;;;;5100069;28;20009;-76
2022/11/03 04:48:37;;;;;;;21.00;3.20;;;;;;;;;;5079001;28;20027;-76
2022/11/03 04:51:10;;;;;;;17.20;3.30;;;;;;;;;;5080321;28;20084;-78
2022/11/03 04:53:36;;;;;;;20.50;3.92;;;;;;;;;;5082724;28;20025;-79
2022/11/03 04:56:13;;;;;;;24.58;3.28;;;;;;;;;;5085231;28;20035;-77
2022/11/03 04:58:39;;;;;;;16.58;3.47;;;;;;;;;;5082805;28;20094;-77
2022/11/03 05:01:10;;;;;;;15.70;3.03;;;;;;;;;;5082472;28;20078;-77
2022/11/03 05:03:37;;;;;;;16.67;3.88;;;;;;;;;;5082311;28;20032;-77
2022/11/03 05:06:14;;;;;;;22.17;3.67;;;;;;;;;;5082268;28;20029;-76
2022/11/03 05:08:41;;;;;;;19.17;3.42;;;;;;;;;;5083873;28;20029;-78
2022/11/03 05:11:27;;;;;;;23.65;3.90;;;;;;;;;;5087884;28;20032;-77
2022/11/03 05:13:57;;;;;;;18.85;3.92;;;;;;;;;;5088089;28;20454;-77
2022/11/03 05:16:23;;;;;;;12.52;2.95;;;;;;;;;;5080190;28;20024;-78
2022/11/03 05:18:49;;;;;;;19.30;2.97;;;;;;;;;;5080491;28;20021;-78
2022/11/03 05:21:17;;;;;;;20.58;3.22;;;;;;;;;;5079643;28;20025;-77
2022/11/03 05:23:47;;;;;;;13.68;3.28;;;;;;;;;;5081460;28;20067;-77
2022/11/03 05:26:16;;;;;;;22.88;3.10;;;;;;;;;;5086124;28;20059;-77
2022/11/03 05:28:44;;;;;;;14.73;3.45;;;;;;;;;;5077619;28;20398;-79
2022/11/03 05:31:17;;;;;;;20.38;3.38;;;;;;;;;;5082661;28;20017;-78
2022/11/03 05:33:46;;;;;;;21.98;3.78;;;;;;;;;;5079514;28;20032;-77
2022/11/03 05:36:13;;;;;;;21.55;3.80;;;;;;;;;;5081319;28;20052;-78
2022/11/03 05:38:39;;;;;;;19.27;3.70;;;;;;;;;;5081150;28;20021;-79
2022/11/03 05:41:11;;;;;;;20.50;3.50;;;;;;;;;;5082551;28;20067;-78
2022/11/03 05:43:37;;;;;;;21.77;3.58;;;;;;;;;;5082054;28;20028;-78
2022/11/03 05:46:03;;;;;;;24.92;4.78;;;;;;;;;;5084884;28;20028;-78
2022/11/03 05:48:29;;;;;;;29.67;4.13;;;;;;;;;;5081293;28;20028;-77
2022/11/03 05:50:59;;;;;;;19.88;4.45;;;;;;;;;;5082354;28;20338;-78
2022/11/03 05:53:37;;;;;;;19.08;4.07;;;;;;;;;;5086054;28;20165;-77
2022/11/03 05:56:04;;;;;;;26.77;4.45;;;;;;;;;;5089014;28;20027;-76
2022/11/03 05:58:30;;;;;;;22.95;3.45;;;;;;;;;;5079905;28;20024;-77
2022/11/03 06:00:56;;;;;;;25.02;4.00;;;;;;;;;;5080850;28;20044;-77
2022/11/03 06:03:29;;;;;;;19.42;3.40;;;;;;;;;;5081832;28;20031;-76
2022/11/03 06:05:56;;;;;;;22.45;3.83;;;;;;;;;;5077049;28;20044;-77
2022/11/03 06:08:25;;;;;;;16.77;3.45;;;;;;;;;;5078916;28;20088;-78
2022/11/03 06:11:00;;;;;;;21.45;4.35;;;;;;;;;;5082421;28;20021;-78
2022/11/03 06:13:29;;;;;;;21.73;3.75;;;;;;;;;;5079742;28;20036;-77
2022/11/03 06:15:57;;;;;;;16.58;3.42;;;;;;;;;;5081047;28;20465;-78
2022/11/03 06:18:25;;;;;;;17.40;4.10;;;;;;;;;;5081605;28;20416;-77
2022/11/03 06:20:57;;;;;;;19.45;3.70;;;;;;;;;;5086778;28;20052;-78
2022/11/03 06:23:23;;;;;;;19.30;3.63;;;;;;;;;;5089677;28;20063;-79
2022/11/03 06:25:51;;;;;;;16.23;2.90;;;;;;;;;;5085339;28;20039;-78
2022/11/03 06:28:36;;;;;;;30.20;3.67;;;;;;;;;;5080403;28;20077;-78
2022/11/03 06:31:04;;;;;;;19.08;3.40;;;;;;;;;;5077488;28;20100;-75
2022/11/03 06:33:34;;;;;;;25.75;4.53;;;;;;;;;;5078698;28;20025;-77
2022/11/03 06:36:15;;;;;;;25.05;5.45;;;;;;;;;;5078316;28;20306;-78
2022/11/03 06:38:41;;;;;;;26.48;4.13;;;;;;;;;;5078429;28;20030;-78
2022/11/03 06:41:15;;;;;;;22.90;4.38;;;;;;;;;;5078903;28;20111;-77
2022/11/03 06:43:41;;;;;;;26.48;3.90;;;;;;;;;;5081935;28;20028;-77
2022/11/03 06:46:18;;;;;;;27.35;3.95;;;;;;;;;;5080197;28;20020;-77
2022/11/03 06:48:44;;;;;;;30.92;4.63;;;;;;;;;;5080939;28;20056;-79
2022/11/03 06:51:19;;;;;;;27.50;4.82;;;;;;;;;;5081582;28;20366;-77
2022/11/03 06:53:45;;;;;;;26.80;4.35;;;;;;;;;;5086639;28;20013;-78
2022/11/03 06:56:16;;;;;;;25.40;3.85;;;;;;;;;;5089395;28;20088;-78
2022/11/03 06:58:42;;;;;;;20.70;4.28;;;;;;;;;;5091360;28;20146;-77
2022/11/03 07:01:15;;;;;;;29.25;4.30;;;;;;;;;;5081368;28;20033;-78
2022/11/03 07:03:41;;;;;;;20.92;4.00;;;;;;;;;;5079460;28;20025;-77
2022/11/03 07:06:10;;;;;;;20.70;3.50;;;;;;;;;;5085411;28;20035;-77
2022/11/03 07:08:44;;;;;;;25.27;3.78;;;;;;;;;;5082660;28;20076;-79
2022/11/03 07:11:10;;;;;;;32.30;4.40;;;;;;;;;;5080308;28;20021;-77
2022/11/03 07:13:36;;;;;;;19.10;4.43;;;;;;;;;;5082216;28;20543;-77
2022/11/03 07:16:02;;;;;;;15.90;3.88;;;;;;;;;;5078050;28;20049;-79
2022/11/03 07:18:34;;;;;;;21.88;3.78;;;;;;;;;;5082522;28;20033;-77
2022/11/03 07:21:03;;;;;;;21.90;4.47;;;;;;;;;;5086478;28;20032;-78
2022/11/03 07:23:30;;;;;;;31.60;4.20;;;;;;;;;;5080815;22;20045;-74
2022/11/03 07:25:58;;;;;;;24.98;3.97;;;;;;;;;;5036502;28;20426;-74
2022/11/03 07:28:26;;;;;;;23.75;3.80;;;;;;;;;;5056633;28;20032;-76
2022/11/03 07:30:52;;;;;;;30.60;4.13;;;;;;;;;;5054597;28;20021;-74
2022/11/03 07:33:25;;;;;;;24.42;3.92;;;;;;;;;;5060470;28;20052;-74
2022/11/03 07:35:51;;;;;;;20.20;3.40;;;;;;;;;;5056970;28;20053;-76
2022/11/03 07:38:19;;;;;;;20.85;3.80;;;;;;;;;;5055563;28;20028;-74
2022/11/03 07:40:45;;;;;;;24.83;3.72;;;;;;;;;;5056239;28;20028;-74
2022/11/03 07:43:31;;;;;;;18.88;3.50;;;;;;;;;;5061022;28;20025;-74
2022/11/03 07:45:59;;;;;;;21.35;3.90;;;;;;;;;;5062148;28;20033;-75
2022/11/03 07:48:25;;;;;;;33.22;4.40;;;;;;;;;;5062501;28;20024;-75
2022/11/03 07:50:52;;;;;;;27.80;3.80;;;;;;;;;;5044157;28;20029;-75
2022/11/03 07:53:20;;;;;;;20.27;3.15;;;;;;;;;;5036814;28;20036;-75
2022/11/03 07:55:47;;;;;;;21.27;3.67;;;;;;;;;;5053842;28;20036;-74
2022/11/03 07:58:20;;;;;;;29.35;4.20;;;;;;;;;;5053442;28;20028;-74
2022/11/03 08:00:46;;;;;;;24.98;3.85;;;;;;;;;;5053575;28;20061;-75
2022/11/03 08:03:25;;;;;;;30.50;4.00;;;;;;;;;;5051859;28;20075;-74
2022/11/03 08:05:51;;;;;;;21.73;4.25;;;;;;;;;;5051999;28;20040;-75
2022/11/03 08:08:17;;;;;;;23.75;4.10;;;;;;;;;;5051546;28;20097;-76
2022/11/03 08:10:42;;;;;;;24.73;4.13;;;;;;;;;;5052095;28;20363;-75
2022/11/03 08:13:08;;;;;;;24.70;3.58;;;;;;;;;;5051874;28;20029;-76
2022/11/03 08:15:34;;;;;;;24.90;4.13;;;;;;;;;;5051096;28;20017;-74
2022/11/03 08:18:00;;;;;;;20.98;3.90;;;;;;;;;;5052318;28;20029;-75
2022/11/03 08:20:26;;;;;;;19.15;3.42;;;;;;;;;;5051886;28;20035;-75
2022/11/03 08:22:52;;;;;;;22.85;3.58;;;;;;;;;;5051525;28;20064;-74
2022/11/03 08:25:18;;;;;;;27.15;3.90;;;;;;;;;;5052275;28;20057;-75
2022/11/03 08:27:44;;;;;;;23.80;4.70;;;;;;;;;;5051807;28;20048;-74
2022/11/03 08:30:10;;;;;;;24.60;5.55;;;;;;;;;;5051584;28;20017;-75
2022/11/03 08:32:36;;;;;;;25.92;5.15;;;;;;;;;;5051843;28;20029;-75
2022/11/03 08:35:02;;;;;;;23.80;5.10;;;;;;;;;;5055257;28;20155;-75
2022/11/03 08:37:28;;;;;;;29.13;4.85;;;;;;;;;;5045179;28;20032;-73
2022/11/03 08:39:54;;;;;;;18.20;3.90;;;;;;;;;;5042993;28;20028;-75
2022/11/03 08:42:20;;;;;;;22.70;3.40;;;;;;;;;;5038026;28;20055;-75
2022/11/03 08:44:46;;;;;;;30.38;4.10;;;;;;;;;;5057585;28;20485;-75
2022/11/03 08:47:12;;;;;;;25.95;4.32;;;;;;;;;;5055364;28;20025;-74
2022/11/03 08:49:38;;;;;;;25.73;4.18;;;;;;;;;;5057465;28;20028;-74
2022/11/03 08:52:04;;;;;;;13.70;3.45;;;;;;;;;;5058688;28;20021;-74
2022/11/03 08:54:30;;;;;;;22.42;4.90;;;;;;;;;;5057347;28;20036;-75
2022/11/03 08:56:56;;;;;;;29.70;4.32;;;;;;;;;;5057194;28;20029;-75
2022/11/03 08:59:22;;;;;;;19.70;3.72;;;;;;;;;;5057230;28;20394;-75
2022/11/03 09:01:48;;;;;;;16.65;3.58;;;;;;;;;;5055470;28;20033;-75
2022/11/03 09:04:14;;;;;;;20.63;4.05;;;;;;;;;;5055737;28;20028;-75
2022/11/03 09:06:40;;;;;;;22.17;4.25;;;;;;;;;;5055272;28;20107;-75
2022/11/03 09:09:06;;;;;;;18.45;3.80;;;;;;;;;;5056282;28;20114;-74
2022/11/03 09:11:32;;;;;;;23.77;4.18;;;;;;;;;;5055218;28;20013;-75
2022/11/03 09:13:58;;;;;;;17.92;3.55;;;;;;;;;;5054851;28;20032;-75
2022/11/03 09:16:24;;;;;;;19.55;3.72;;;;;;;;;;5054426;28;20017;-74
2022/11/03 09:18:50;;;;;;;19.05;4.07;;;;;;;;;;5054487;28;20071;-75
2022/11/03 09:21:16;;;;;;;18.88;3.70;;;;;;;;;;5053848;28;20489;-75
2022/11/03 09:23:41;;;;;;;19.92;3.63;;;;;;;;;;5053972;28;20512;-75
2022/11/03 09:26:07;;;;;;;15.40;3.05;;;;;;;;;;5035577;28;20466;-75
2022/11/03 09:28:33;;;;;;;25.38;3.85;;;;;;;;;;5053442;28;20496;-75
2022/11/03 09:30:59;;;;;;;22.20;3.45;;;;;;;;;;5054418;28;20025;-75
2022/11/03 09:33:25;;;;;;;23.05;3.85;;;;;;;;;;5053441;28;20092;-75
2022/11/03 09:35:51;;;;;;;17.50;3.80;;;;;;;;;;5053537;28;20101;-75
2022/11/03 09:38:17;;;;;;;17.73;3.33;;;;;;;;;;5054685;28;20076;-75
2022/11/03 09:40:43;;;;;;;24.55;4.13;;;;;;;;;;5043185;28;20086;-73
2022/11/03 09:43:10;;;;;;;21.45;3.70;;;;;;;;;;5063018;28;20082;-73
2022/11/03 09:45:37;;;;;;;17.83;3.70;;;;;;;;;;5063782;28;20028;-74
2022/11/03 09:48:03;;;;;;;14.57;3.45;;;;;;;;;;5060294;28;20041;-73
2022/11/03 09:50:29;;;;;;;25.23;4.93;;;;;;;;;;5040426;28;20085;-74
2022/11/03 09:52:56;;;;;;;25.40;3.80;;;;;;;;;;5060172;28;20095;-74
2022/11/03 09:55:26;;;;;;;16.65;3.45;;;;;;;;;;5056560;28;20104;-74
2022/11/03 09:57:57;;;;;;;20.60;3.50;;;;;;;;;;5056423;28;20024;-74
2022/11/03 10:00:23;;;;;;;18.95;4.07;;;;;;;;;;5057278;28;20089;-74
2022/11/03 10:02:50;;;;;;;28.17;3.95;;;;;;;;;;5057693;28;20029;-74
2022/11/03 10:05:19;;;;;;;13.85;2.72;;;;;;;;;;5053173;28;20017;-75
2022/11/03 10:07:45;;;;;;;27.80;4.95;;;;;;;;;;5052892;28;20473;-74
2022/11/03 10:10:19;;;;;;;23.92;4.20;;;;;;;;;;5058203;28;20025;-75
2022/11/03 10:12:46;;;;;;;28.02;7.65;;;;;;;;;;5046069;28;20027;-74
2022/11/03 10:15:18;;;;;;;20.35;4.00;;;;;;;;;;5053027;28;20075;-75
2022/11/03 10:17:45;;;;;;;21.88;6.22;;;;;;;;;;5056372;28;20060;-74
2022/11/03 10:20:12;;;;;;;21.27;4.45;;;;;;;;;;5053469;28;20071;-74
2022/11/03 10:22:38;;;;;;;20.85;3.90;;;;;;;;;;5059562;28;20037;-74
2022/11/03 10:25:23;;;;;;;19.73;4.53;;;;;;;;;;5060587;28;20083;-76
2022/11/03 10:27:49;;;;;;;18.30;3.72;;;;;;;;;;5062660;28;20032;-74
2022/11/03 10:30:15;;;;;;;19.08;4.65;;;;;;;;;;5064517;28;20017;-73
2022/11/03 10:32:41;;;;;;;20.67;3.92;;;;;;;;;;5056078;28;20142;-74
2022/11/03 10:35:25;;;;;;;23.38;3.88;;;;;;;;;;5052625;28;20082;-74
2022/11/03 10:37:51;;;;;;;18.60;3.75;;;;;;;;;;5039135;28;20132;-74
2022/11/03 10:40:34;;;;;;;14.05;3.28;;;;;;;;;;5037946;28;20036;-74
2022/11/03 10:42:59;;;;;;;19.95;3.40;;;;;;;;;;5052139;28;20025;-74
2022/11/03 10:45:25;;;;;;;18.05;3.45;;;;;;;;;;5051815;28;20408;-74
2022/11/03 10:47:59;;;;;;;21.80;3.90;;;;;;;;;;5052227;28;20477;-74
2022/11/03 10:50:26;;;;;;;24.17;4.43;;;;;;;;;;5052466;28;20449;-74
2022/11/03 10:52:52;;;;;;;16.30;3.55;;;;;;;;;;5057478;28;20025;-75
2022/11/03 10:55:19;;;;;;;19.13;3.17;;;;;;;;;;5054008;28;20071;-74
2022/11/03 10:57:45;;;;;;;16.80;3.65;;;;;;;;;;5055868;28;20057;-76
2022/11/03 11:00:15;;;;;;;17.52;3.65;;;;;;;;;;5036769;28;20090;-74
2022/11/03 11:02:45;;;;;;;18.55;3.75;;;;;;;;;;5054020;28;20055;-75
2022/11/03 11:05:14;;;;;;;16.75;3.58;;;;;;;;;;5057539;28;20021;-74
2022/11/03 11:07:42;;;;;;;19.88;3.63;;;;;;;;;;5042751;28;20029;-74
2022/11/03 11:10:19;;;;;;;20.63;3.60;;;;;;;;;;5058461;28;20024;-74
2022/11/03 11:13:03;;;;;;;17.83;3.30;;;;;;;;;;5055762;28;20100;-74
2022/11/03 11:15:40;;;;;;;23.08;4.05;;;;;;;;;;5052500;28;20025;-75
2022/11/03 11:18:06;;;;;;;22.13;3.92;;;;;;;;;;5037331;28;20453;-74
2022/11/03 11:20:40;;;;;;;17.33;3.28;;;;;;;;;;5052503;28;20036;-75
2022/11/03 11:23:25;;;;;;;16.55;3.65;;;;;;;;;;5052209;28;20083;-75
2022/11/03 11:26:08;;;;;;;15.75;3.90;;;;;;;;;;5054615;28;20036;-74
2022/11/03 11:28:38;;;;;;;20.70;3.72;;;;;;;;;;5053721;28;20029;-75
2022/11/03 11:31:23;;;;;;;11.68;3.35;;;;;;;;;;5052006;28;20025;-75
2022/11/03 11:33:49;;;;;;;22.88;5.43;;;;;;;;;;5052111;28;20435;-75
2022/11/03 11:36:20;;;;;;;20.90;3.70;;;;;;;;;;5051904;28;20028;-74
2022/11/03 11:38:51;;;;;;;18.85;3.75;;;;;;;;;;5051832;28;20436;-74
2022/11/03 11:41:17;;;;;;;18.73;3.90;;;;;;;;;;5050921;28;20043;-75
2022/11/03 11:43:42;;;;;;;15.80;3.30;;;;;;;;;;5053379;28;20478;-74
2022/11/03 11:46:27;;;;;;;14.43;3.58;;;;;;;;;;5051090;28;20027;-75
2022/11/03 11:48:56;;;;;;;20.00;3.97;;;;;;;;;;5052115;28;20428;-75
2022/11/03 11:51:23;;;;;;;16.95;3.95;;;;;;;;;;5051561;28;20025;-74
2022/11/03 11:53:50;;;;;;;14.32;3.53;;;;;;;;;;5051807;28;20108;-74
2022/11/03 11:56:16;;;;;;;20.90;4.03;;;;;;;;;;5050951;28;20108;-75
2022/11/03 11:58:53;;;;;;;22.80;3.60;;;;;;;;;;5051940;28;20375;-74
2022/11/03 12:01:29;;;;;;;14.77;2.55;;;;;;;;;;5051560;28;20020;-74
2022/11/03 12:03:56;;;;;;;15.52;3.13;;;;;;;;;;5051999;28;20087;-74
2022/11/03 12:06:39;;;;;;;21.27;3.60;;;;;;;;;;5051971;28;20111;-74
2022/11/03 12:09:05;;;;;;;17.10;3.00;;;;;;;;;;5054231;28;20032;-75
2022/11/03 12:11:50;;;;;;;16.45;3.15;;;;;;;;;;5058709;28;20017;-73
2022/11/03 12:14:32;;;;;;;20.33;3.25;;;;;;;;;;5056740;28;20096;-74
2022/11/03 12:16:59;;;;;;;17.90;3.33;;;;;;;;;;5055175;28;20025;-75
2022/11/03 12:19:37;;;;;;;14.60;3.55;;;;;;;;;;5055938;28;20029;-75
2022/11/03 12:22:07;;;;;;;12.23;3.00;;;;;;;;;;5056678;28;20033;-75
2022/11/03 12:24:38;;;;;;;19.45;4.00;;;;;;;;;;5055761;28;20053;-76
2022/11/03 12:27:17;;;;;;;12.88;3.70;;;;;;;;;;5055666;28;20474;-76
2022/11/03 12:29:43;;;;;;;23.02;3.97;;;;;;;;;;5037819;28;20028;-74
2022/11/03 12:32:09;;;;;;;18.13;3.67;;;;;;;;;;5056869;28;20021;-74
2022/11/03 12:34:35;;;;;;;14.95;3.72;;;;;;;;;;5060330;28;20493;-74
2022/11/03 12:37:00;;;;;;;17.65;3.80;;;;;;;;;;5060893;28;20032;-74
2022/11/03 12:39:26;;;;;;;15.35;3.35;;;;;;;;;;5058847;28;20036;-74
2022/11/03 12:41:52;;;;;;;19.23;3.65;;;;;;;;;;5055138;28;20170;-74
2022/11/03 12:44:18;;;;;;;17.13;3.80;;;;;;;;;;5055364;28;20056;-75
2022/11/03 12:46:44;;;;;;;22.45;4.22;;;;;;;;;;5054907;28;20537;-74
2022/11/03 12:49:10;;;;;;;20.02;3.42;;;;;;;;;;5057566;28;20114;-74
2022/11/03 12:51:36;;;;;;;16.17;3.35;;;;;;;;;;5054811;28;20100;-74
2022/11/03 12:54:02;;;;;;;17.40;3.50;;;;;;;;;;5054525;28;20104;-75
2022/11/03 12:56:28;;;;;;;14.27;3.20;;;;;;;;;;5057181;28;20386;-75
2022/11/03 12:58:54;;;;;;;12.35;3.00;;;;;;;;;;5040369;28;20035;-74
2022/11/03 13:01:21;;;;;;;24.10;4.10;;;;;;;;;;5036926;28;20025;-75
2022/11/03 13:03:46;;;;;;;16.05;3.95;;;;;;;;;;5036603;28;20113;-75
2022/11/03 13:06:13;;;;;;;18.02;3.42;;;;;;;;;;5057665;28;20089;-74
2022/11/03 13:08:39;;;;;;;14.27;3.03;;;;;;;;;;5058785;28;20036;-74
2022/11/03 13:12:29;;;;;;;16.23;3.13;;;;;;;;;;5038269;28;20029;-75
2022/11/03 13:13:52;;;;;;;19.17;3.28;;;;;;;;;;5056915;28;20025;-75
2022/11/03 13:16:18;;;;;;;13.20;3.20;;;;;;;;;;5055232;28;20020;-75
2022/11/03 13:18:44;;;;;;;22.25;3.78;;;;;;;;;;5056512;28;20036;-74
2022/11/03 13:21:10;;;;;;;18.77;3.75;;;;;;;;;;5058805;28;20035;-75
2022/11/03 13:23:36;;;;;;;17.27;3.53;;;;;;;;;;5119984;22;20059;-72
2022/11/03 13:26:02;;;;;;;12.40;3.17;;;;;;;;;;5075377;28;20039;-72
2022/11/03 13:28:28;;;;;;;20.98;3.67;;;;;;;;;;5074900;28;20031;-72
2022/11/03 13:30:54;;;;;;;17.27;3.42;;;;;;;;;;5074189;28;20017;-73
2022/11/03 13:33:20;;;;;;;20.63;3.67;;;;;;;;;;5079626;28;20425;-72
2022/11/03 13:35:46;;;;;;;20.13;3.40;;;;;;;;;;5085842;28;20025;-72
2022/11/03 13:38:12;;;;;;;19.20;3.30;;;;;;;;;;5081570;28;20503;-72
2022/11/03 13:40:38;;;;;;;13.88;2.97;;;;;;;;;;5077312;28;20465;-74
2022/11/03 13:43:04;;;;;;;22.20;3.45;;;;;;;;;;5079362;28;20070;-72
2022/11/03 13:45:29;;;;;;;15.90;4.05;;;;;;;;;;5079118;28;20039;-74
2022/11/03 13:47:56;;;;;;;38.40;18.75;;;;;;;;;;5079255;28;20028;-72
2022/11/03 13:50:22;;;;;;;13.02;3.13;;;;;;;;;;5077046;28;20025;-72
2022/11/03 13:52:48;;;;;;;17.98;3.63;;;;;;;;;;5082949;28;20180;-73
2022/11/03 13:55:14;;;;;;;18.42;3.35;;;;;;;;;;5077566;28;20052;-75
2022/11/03 13:57:40;;;;;;;14.93;2.97;;;;;;;;;;5078103;28;20397;-75
2022/11/03 14:00:07;;;;;;;9.55;2.72;;;;;;;;;;5090172;28;20025;-74
2022/11/03 14:02:33;;;;;;;18.42;3.45;;;;;;;;;;5090710;28;20047;-73
2022/11/03 14:04:59;;;;;;;19.77;3.58;;;;;;;;;;5089656;28;20028;-72
2022/11/03 14:07:25;;;;;;;17.65;3.30;;;;;;;;;;5091093;28;20039;-74
2022/11/03 14:09:51;;;;;;;18.63;4.03;;;;;;;;;;5088411;28;20028;-72
2022/11/03 14:12:29;;;;;;;17.13;4.20;;;;;;;;;;5075004;28;20028;-74
2022/11/03 14:14:56;;;;;;;16.42;3.30;;;;;;;;;;5074940;28;20078;-74
2022/11/03 14:17:23;;;;;;;16.48;3.75;;;;;;;;;;5081135;28;20060;-72
2022/11/03 14:19:49;;;;;;;20.35;4.65;;;;;;;;;;5087034;28;20021;-73
2022/11/03 14:22:15;;;;;;;24.73;4.03;;;;;;;;;;5079221;28;20063;-72
2022/11/03 14:24:41;;;;;;;13.32;3.58;;;;;;;;;;5073752;28;20028;-73
2022/11/03 14:27:07;;;;;;;20.13;4.38;;;;;;;;;;5077860;28;20031;-73
2022/11/03 14:29:48;;;;;;;22.48;4.03;;;;;;;;;;5074602;28;20074;-75
2022/11/03 14:32:15;;;;;;;21.00;4.88;;;;;;;;;;5073832;28;20392;-73
2022/11/03 14:34:42;;;;;;;20.08;3.80;;;;;;;;;;5074255;28;20453;-72
2022/11/03 14:37:08;;;;;;;21.77;5.03;;;;;;;;;;5074067;28;20085;-72
2022/11/03 14:39:37;;;;;;;15.15;2.97;;;;;;;;;;5072274;28;20025;-73
2022/11/03 14:42:04;;;;;;;13.75;3.25;;;;;;;;;;5074053;28;20529;-73
2022/11/03 14:44:35;;;;;;;18.73;3.15;;;;;;;;;;5072786;28;20028;-73
2022/11/03 14:47:01;;;;;;;17.13;3.20;;;;;;;;;;5073147;28;20074;-74
2022/11/03 14:49:28;;;;;;;19.77;3.85;;;;;;;;;;5073924;28;20016;-71
2022/11/03 14:51:55;;;;;;;22.90;3.45;;;;;;;;;;5073810;28;20086;-72
2022/11/03 14:54:21;;;;;;;22.88;3.83;;;;;;;;;;5074538;28;20039;-73
2022/11/03 14:56:47;;;;;;;19.48;3.58;;;;;;;;;;5074515;28;20466;-72